sensor_id;sensor_type;location;lat;lon;timestamp;temperature;humidity
64939;DHT22;51453;47.738;7.420;2024-02-04T00:01:40;4.80;99.90
64939;DHT22;51453;47.738;7.420;2024-02-04T00:04:07;4.80;99.90
64939;DHT22;51453;47.738;7.420;2024-02-04T00:06:33;4.80;99.90
64939;DHT22;51453;47.738;7.420;2024-02-04T00:08:58;4.80;99.90
64939;DHT22;51453;47.738;7.420;2024-02-04T00:11:24;4.80;99.90
64939;DHT22;51453;47.738;7.420;2024-02-04T00:13:50;4.80;99.90
64939;DHT22;51453;47.738;7.420;2024-02-04T00:16:15;4.80;99.90
64939;DHT22;51453;47.738;7.420;2024-02-04T00:18:41;4.90;99.90
64939;DHT22;51453;47.738;7.420;2024-02-04T00:21:07;4.90;99.90
64939;DHT22;51453;47.738;7.420;2024-02-04T00:23:32;4.90;99.90
64939;DHT22;51453;47.738;7.420;2024-02-04T00:25:58;4.80;99.90
64939;DHT22;51453;47.738;7.420;2024-02-04T00:28:23;4.90;99.90
64939;DHT22;51453;47.738;7.420;2024-02-04T00:30:49;4.90;99.90
64939;DHT22;51453;47.738;7.420;2024-02-04T00:33:16;4.90;99.90
64939;DHT22;51453;47.738;7.420;2024-02-04T00:35:42;4.80;99.90
64939;DHT22;51453;47.738;7.420;2024-02-04T00:38:08;4.80;99.90
64939;DHT22;51453;47.738;7.420;2024-02-04T00:40:34;4.80;99.90
64939;DHT22;51453;47.738;7.420;2024-02-04T00:43:00;4.80;99.90
64939;DHT22;51453;47.738;7.420;2024-02-04T00:45:26;4.80;99.90
64939;DHT22;51453;47.738;7.420;2024-02-04T00:47:51;4.80;99.90
64939;DHT22;51453;47.738;7.420;2024-02-04T00:50:17;4.70;99.90
64939;DHT22;51453;47.738;7.420;2024-02-04T00:52:43;4.70;99.90
64939;DHT22;51453;47.738;7.420;2024-02-04T00:55:09;4.70;99.90
64939;DHT22;51453;47.738;7.420;2024-02-04T00:57:34;4.70;99.90
64939;DHT22;51453;47.738;7.420;2024-02-04T01:00:00;4.70;99.90
64939;DHT22;51453;47.738;7.420;2024-02-04T01:02:25;4.80;99.90
64939;DHT22;51453;47.738;7.420;2024-02-04T01:04:51;4.90;99.90
64939;DHT22;51453;47.738;7.420;2024-02-04T01:07:17;4.90;99.90
64939;DHT22;51453;47.738;7.420;2024-02-04T01:09:42;4.90;99.90
64939;DHT22;51453;47.738;7.420;2024-02-04T01:12:08;4.80;99.90
64939;DHT22;51453;47.738;7.420;2024-02-04T01:14:34;4.70;99.90
64939;DHT22;51453;47.738;7.420;2024-02-04T01:16:59;4.70;99.90
64939;DHT22;51453;47.738;7.420;2024-02-04T01:19:25;4.70;99.90
64939;DHT22;51453;47.738;7.420;2024-02-04T01:21:51;4.70;99.90
64939;DHT22;51453;47.738;7.420;2024-02-04T01:24:16;4.60;99.90
64939;DHT22;51453;47.738;7.420;2024-02-04T01:26:42;4.80;99.90
64939;DHT22;51453;47.738;7.420;2024-02-04T01:29:08;4.80;99.90
64939;DHT22;51453;47.738;7.420;2024-02-04T01:31:33;4.80;99.90
64939;DHT22;51453;47.738;7.420;2024-02-04T01:33:59;4.90;99.90
64939;DHT22;51453;47.738;7.420;2024-02-04T01:36:25;4.90;99.90
64939;DHT22;51453;47.738;7.420;2024-02-04T01:38:50;4.90;99.90
64939;DHT22;51453;47.738;7.420;2024-02-04T01:41:16;5.00;99.90
64939;DHT22;51453;47.738;7.420;2024-02-04T01:43:41;5.00;99.90
64939;DHT22;51453;47.738;7.420;2024-02-04T01:46:07;5.00;99.90
64939;DHT22;51453;47.738;7.420;2024-02-04T01:48:33;5.00;99.90
64939;DHT22;51453;47.738;7.420;2024-02-04T01:50:59;5.00;99.90
64939;DHT22;51453;47.738;7.420;2024-02-04T01:53:26;5.00;99.90
64939;DHT22;51453;47.738;7.420;2024-02-04T01:55:53;5.00;99.90
64939;DHT22;51453;47.738;7.420;2024-02-04T01:58:20;5.00;99.90
64939;DHT22;51453;47.738;7.420;2024-02-04T02:00:47;5.00;99.90
64939;DHT22;51453;47.738;7.420;2024-02-04T02:03:14;4.90;99.90
64939;DHT22;51453;47.738;7.420;2024-02-04T02:05:40;4.90;99.90
64939;DHT22;51453;47.738;7.420;2024-02-04T02:08:06;4.90;99.90
64939;DHT22;51453;47.738;7.420;2024-02-04T02:10:32;4.90;99.90
64939;DHT22;51453;47.738;7.420;2024-02-04T02:15:38;4.90;99.90
64939;DHT22;51453;47.738;7.420;2024-02-04T02:18:12;4.90;99.90
64939;DHT22;51453;47.738;7.420;2024-02-04T02:23:31;4.90;99.90
64939;DHT22;51453;47.738;7.420;2024-02-04T02:25:59;4.90;99.90
64939;DHT22;51453;47.738;7.420;2024-02-04T02:28:25;4.90;99.90
64939;DHT22;51453;47.738;7.420;2024-02-04T02:30:51;4.90;99.90
64939;DHT22;51453;47.738;7.420;2024-02-04T02:33:16;4.90;99.90
64939;DHT22;51453;47.738;7.420;2024-02-04T02:35:43;5.10;99.90
64939;DHT22;51453;47.738;7.420;2024-02-04T02:38:31;5.20;99.90
64939;DHT22;51453;47.738;7.420;2024-02-04T02:40:59;5.20;99.90
64939;DHT22;51453;47.738;7.420;2024-02-04T02:43:29;5.30;99.90
64939;DHT22;51453;47.738;7.420;2024-02-04T02:45:55;5.30;99.90
64939;DHT22;51453;47.738;7.420;2024-02-04T02:48:22;5.30;99.90
64939;DHT22;51453;47.738;7.420;2024-02-04T02:50:49;5.30;99.90
64939;DHT22;51453;47.738;7.420;2024-02-04T02:53:14;5.20;99.90
64939;DHT22;51453;47.738;7.420;2024-02-04T02:55:41;5.20;99.90
64939;DHT22;51453;47.738;7.420;2024-02-04T02:58:07;5.20;99.90
64939;DHT22;51453;47.738;7.420;2024-02-04T03:00:33;5.20;99.90
64939;DHT22;51453;47.738;7.420;2024-02-04T03:02:58;5.20;99.90
64939;DHT22;51453;47.738;7.420;2024-02-04T03:05:24;5.20;99.90
64939;DHT22;51453;47.738;7.420;2024-02-04T03:07:50;5.20;99.90
64939;DHT22;51453;47.738;7.420;2024-02-04T03:10:15;5.20;99.90
64939;DHT22;51453;47.738;7.420;2024-02-04T03:12:41;5.30;99.90
64939;DHT22;51453;47.738;7.420;2024-02-04T03:15:07;5.30;99.90
64939;DHT22;51453;47.738;7.420;2024-02-04T03:17:33;5.30;99.90
64939;DHT22;51453;47.738;7.420;2024-02-04T03:19:58;5.30;99.90
64939;DHT22;51453;47.738;7.420;2024-02-04T03:22:24;5.40;99.90
64939;DHT22;51453;47.738;7.420;2024-02-04T03:24:51;5.40;99.90
64939;DHT22;51453;47.738;7.420;2024-02-04T03:27:18;5.50;99.90
64939;DHT22;51453;47.738;7.420;2024-02-04T03:29:43;5.40;99.90
64939;DHT22;51453;47.738;7.420;2024-02-04T03:32:11;5.50;99.90
64939;DHT22;51453;47.738;7.420;2024-02-04T03:34:36;5.60;99.90
64939;DHT22;51453;47.738;7.420;2024-02-04T03:37:02;5.50;99.90
64939;DHT22;51453;47.738;7.420;2024-02-04T03:39:28;5.50;99.90
64939;DHT22;51453;47.738;7.420;2024-02-04T03:41:53;5.50;99.90
64939;DHT22;51453;47.738;7.420;2024-02-04T03:44:19;5.50;99.90
64939;DHT22;51453;47.738;7.420;2024-02-04T03:46:48;5.50;99.90
64939;DHT22;51453;47.738;7.420;2024-02-04T03:49:14;5.60;99.90
64939;DHT22;51453;47.738;7.420;2024-02-04T03:51:40;5.60;99.90
64939;DHT22;51453;47.738;7.420;2024-02-04T03:54:05;5.60;99.90
64939;DHT22;51453;47.738;7.420;2024-02-04T03:56:31;5.70;99.90
64939;DHT22;51453;47.738;7.420;2024-02-04T03:58:57;5.80;99.90
64939;DHT22;51453;47.738;7.420;2024-02-04T04:01:22;5.70;99.90
64939;DHT22;51453;47.738;7.420;2024-02-04T04:03:49;5.70;99.90
64939;DHT22;51453;47.738;7.420;2024-02-04T04:06:14;5.80;99.90
64939;DHT22;51453;47.738;7.420;2024-02-04T04:08:40;5.80;99.90
64939;DHT22;51453;47.738;7.420;2024-02-04T04:11:10;5.80;99.90
64939;DHT22;51453;47.738;7.420;2024-02-04T04:13:36;5.70;99.90
64939;DHT22;51453;47.738;7.420;2024-02-04T04:16:03;5.70;99.90
64939;DHT22;51453;47.738;7.420;2024-02-04T04:18:29;5.80;99.90
64939;DHT22;51453;47.738;7.420;2024-02-04T04:20:54;5.80;99.90
64939;DHT22;51453;47.738;7.420;2024-02-04T04:23:20;5.70;99.90
64939;DHT22;51453;47.738;7.420;2024-02-04T04:25:46;5.70;99.90
64939;DHT22;51453;47.738;7.420;2024-02-04T04:28:11;5.70;99.90
64939;DHT22;51453;47.738;7.420;2024-02-04T04:30:37;5.70;99.90
64939;DHT22;51453;47.738;7.420;2024-02-04T04:33:02;5.70;99.90
64939;DHT22;51453;47.738;7.420;2024-02-04T04:35:28;5.70;99.90
64939;DHT22;51453;47.738;7.420;2024-02-04T04:37:54;5.80;99.90
64939;DHT22;51453;47.738;7.420;2024-02-04T04:40:19;5.70;99.90
64939;DHT22;51453;47.738;7.420;2024-02-04T04:42:45;5.70;99.90
64939;DHT22;51453;47.738;7.420;2024-02-04T04:45:10;5.70;99.90
64939;DHT22;51453;47.738;7.420;2024-02-04T04:47:36;5.70;99.90
64939;DHT22;51453;47.738;7.420;2024-02-04T04:50:03;5.70;99.90
64939;DHT22;51453;47.738;7.420;2024-02-04T04:52:28;5.80;99.90
64939;DHT22;51453;47.738;7.420;2024-02-04T04:54:57;5.80;99.90
64939;DHT22;51453;47.738;7.420;2024-02-04T04:57:23;5.80;99.90
64939;DHT22;51453;47.738;7.420;2024-02-04T04:59:49;5.80;99.90
64939;DHT22;51453;47.738;7.420;2024-02-04T05:02:14;5.80;99.90
64939;DHT22;51453;47.738;7.420;2024-02-04T05:04:44;5.70;99.90
64939;DHT22;51453;47.738;7.420;2024-02-04T05:07:13;5.80;99.90
64939;DHT22;51453;47.738;7.420;2024-02-04T05:09:39;5.80;99.90
64939;DHT22;51453;47.738;7.420;2024-02-04T05:12:05;5.80;99.90
64939;DHT22;51453;47.738;7.420;2024-02-04T05:14:31;5.80;99.90
64939;DHT22;51453;47.738;7.420;2024-02-04T05:16:57;5.90;99.90
64939;DHT22;51453;47.738;7.420;2024-02-04T05:19:22;6.00;99.90
64939;DHT22;51453;47.738;7.420;2024-02-04T05:21:48;5.90;99.90
64939;DHT22;51453;47.738;7.420;2024-02-04T05:24:14;5.90;99.90
64939;DHT22;51453;47.738;7.420;2024-02-04T05:26:39;5.90;99.90
64939;DHT22;51453;47.738;7.420;2024-02-04T05:29:05;5.90;99.90
64939;DHT22;51453;47.738;7.420;2024-02-04T05:31:30;5.80;99.90
64939;DHT22;51453;47.738;7.420;2024-02-04T05:33:56;5.90;99.90
64939;DHT22;51453;47.738;7.420;2024-02-04T05:36:22;5.90;99.90
64939;DHT22;51453;47.738;7.420;2024-02-04T05:38:47;5.90;99.90
64939;DHT22;51453;47.738;7.420;2024-02-04T05:41:13;5.90;99.90
64939;DHT22;51453;47.738;7.420;2024-02-04T05:43:39;5.90;99.90
64939;DHT22;51453;47.738;7.420;2024-02-04T05:46:05;5.90;99.90
64939;DHT22;51453;47.738;7.420;2024-02-04T05:48:30;5.80;99.90
64939;DHT22;51453;47.738;7.420;2024-02-04T05:50:56;5.80;99.90
64939;DHT22;51453;47.738;7.420;2024-02-04T05:53:21;5.80;99.90
64939;DHT22;51453;47.738;7.420;2024-02-04T05:55:47;5.70;99.90
64939;DHT22;51453;47.738;7.420;2024-02-04T05:58:13;5.70;99.90
64939;DHT22;51453;47.738;7.420;2024-02-04T06:00:39;5.70;99.90
64939;DHT22;51453;47.738;7.420;2024-02-04T06:03:05;5.70;99.90
64939;DHT22;51453;47.738;7.420;2024-02-04T06:05:31;5.70;99.90
64939;DHT22;51453;47.738;7.420;2024-02-04T06:07:56;5.70;99.90
64939;DHT22;51453;47.738;7.420;2024-02-04T06:10:22;5.70;99.90
64939;DHT22;51453;47.738;7.420;2024-02-04T06:12:48;5.70;99.90
64939;DHT22;51453;47.738;7.420;2024-02-04T06:15:14;5.70;99.90
64939;DHT22;51453;47.738;7.420;2024-02-04T06:17:41;5.70;99.90
64939;DHT22;51453;47.738;7.420;2024-02-04T06:20:07;5.70;99.90
64939;DHT22;51453;47.738;7.420;2024-02-04T06:22:34;5.60;99.90
64939;DHT22;51453;47.738;7.420;2024-02-04T06:25:01;5.60;99.90
64939;DHT22;51453;47.738;7.420;2024-02-04T06:27:26;5.50;99.90
64939;DHT22;51453;47.738;7.420;2024-02-04T06:29:52;5.50;99.90
64939;DHT22;51453;47.738;7.420;2024-02-04T06:32:17;5.40;99.90
64939;DHT22;51453;47.738;7.420;2024-02-04T06:34:46;5.30;99.90
64939;DHT22;51453;47.738;7.420;2024-02-04T06:37:12;5.20;99.90
64939;DHT22;51453;47.738;7.420;2024-02-04T06:39:38;5.10;99.90
64939;DHT22;51453;47.738;7.420;2024-02-04T06:42:04;5.00;99.90
64939;DHT22;51453;47.738;7.420;2024-02-04T06:44:29;5.00;99.90
64939;DHT22;51453;47.738;7.420;2024-02-04T06:46:55;5.00;99.90
64939;DHT22;51453;47.738;7.420;2024-02-04T06:49:20;5.10;99.90
64939;DHT22;51453;47.738;7.420;2024-02-04T06:51:46;5.00;99.90
64939;DHT22;51453;47.738;7.420;2024-02-04T06:54:13;5.00;99.90
64939;DHT22;51453;47.738;7.420;2024-02-04T06:56:39;5.10;99.90
64939;DHT22;51453;47.738;7.420;2024-02-04T06:59:05;5.00;99.90
64939;DHT22;51453;47.738;7.420;2024-02-04T07:01:30;5.00;99.90
64939;DHT22;51453;47.738;7.420;2024-02-04T07:03:56;5.00;99.90
64939;DHT22;51453;47.738;7.420;2024-02-04T07:06:22;5.00;99.90
64939;DHT22;51453;47.738;7.420;2024-02-04T07:08:47;4.90;99.90
64939;DHT22;51453;47.738;7.420;2024-02-04T07:11:13;5.00;99.90
64939;DHT22;51453;47.738;7.420;2024-02-04T07:13:38;4.90;99.90
64939;DHT22;51453;47.738;7.420;2024-02-04T07:16:04;4.90;99.90
64939;DHT22;51453;47.738;7.420;2024-02-04T07:18:30;4.90;99.90
64939;DHT22;51453;47.738;7.420;2024-02-04T07:20:56;4.90;99.90
64939;DHT22;51453;47.738;7.420;2024-02-04T07:23:22;5.00;99.90
64939;DHT22;51453;47.738;7.420;2024-02-04T07:25:48;5.00;99.90
64939;DHT22;51453;47.738;7.420;2024-02-04T07:28:13;5.00;99.90
64939;DHT22;51453;47.738;7.420;2024-02-04T07:30:39;5.10;99.90
64939;DHT22;51453;47.738;7.420;2024-02-04T07:33:05;5.10;99.90
64939;DHT22;51453;47.738;7.420;2024-02-04T07:35:31;5.20;99.90
64939;DHT22;51453;47.738;7.420;2024-02-04T07:37:57;5.20;99.90
64939;DHT22;51453;47.738;7.420;2024-02-04T07:40:22;5.30;99.90
64939;DHT22;51453;47.738;7.420;2024-02-04T07:42:48;5.40;99.90
64939;DHT22;51453;47.738;7.420;2024-02-04T07:45:13;5.40;99.90
64939;DHT22;51453;47.738;7.420;2024-02-04T07:47:39;5.50;99.90
64939;DHT22;51453;47.738;7.420;2024-02-04T07:50:08;5.50;99.90
64939;DHT22;51453;47.738;7.420;2024-02-04T07:52:34;5.50;99.90
64939;DHT22;51453;47.738;7.420;2024-02-04T07:54:59;5.50;99.90
64939;DHT22;51453;47.738;7.420;2024-02-04T07:57:25;5.60;99.90
64939;DHT22;51453;47.738;7.420;2024-02-04T07:59:51;5.60;99.90
64939;DHT22;51453;47.738;7.420;2024-02-04T08:02:18;5.60;99.90
64939;DHT22;51453;47.738;7.420;2024-02-04T08:04:43;5.60;99.90
64939;DHT22;51453;47.738;7.420;2024-02-04T08:07:09;5.70;99.90
64939;DHT22;51453;47.738;7.420;2024-02-04T08:09:34;5.70;99.90
64939;DHT22;51453;47.738;7.420;2024-02-04T08:12:00;5.80;99.90
64939;DHT22;51453;47.738;7.420;2024-02-04T08:14:26;5.90;99.90
64939;DHT22;51453;47.738;7.420;2024-02-04T08:16:51;6.00;99.90
64939;DHT22;51453;47.738;7.420;2024-02-04T08:19:17;6.00;99.90
64939;DHT22;51453;47.738;7.420;2024-02-04T08:21:43;6.10;99.90
64939;DHT22;51453;47.738;7.420;2024-02-04T08:24:08;6.10;99.90
64939;DHT22;51453;47.738;7.420;2024-02-04T08:26:34;6.10;99.90
64939;DHT22;51453;47.738;7.420;2024-02-04T08:29:00;6.20;99.90
64939;DHT22;51453;47.738;7.420;2024-02-04T08:31:26;6.20;99.90
64939;DHT22;51453;47.738;7.420;2024-02-04T08:33:51;6.20;99.90
64939;DHT22;51453;47.738;7.420;2024-02-04T08:36:18;6.20;99.90
64939;DHT22;51453;47.738;7.420;2024-02-04T08:38:44;6.20;99.90
64939;DHT22;51453;47.738;7.420;2024-02-04T08:41:10;6.30;99.90
64939;DHT22;51453;47.738;7.420;2024-02-04T08:43:36;6.30;99.90
64939;DHT22;51453;47.738;7.420;2024-02-04T08:46:01;6.30;99.90
64939;DHT22;51453;47.738;7.420;2024-02-04T08:48:27;6.40;99.90
64939;DHT22;51453;47.738;7.420;2024-02-04T08:50:52;6.40;99.90
64939;DHT22;51453;47.738;7.420;2024-02-04T08:53:20;6.50;99.90
64939;DHT22;51453;47.738;7.420;2024-02-04T08:55:46;6.50;99.90
64939;DHT22;51453;47.738;7.420;2024-02-04T08:58:12;6.60;99.90
64939;DHT22;51453;47.738;7.420;2024-02-04T09:00:37;6.60;99.90
64939;DHT22;51453;47.738;7.420;2024-02-04T09:03:03;6.70;99.90
64939;DHT22;51453;47.738;7.420;2024-02-04T09:05:29;6.80;99.90
64939;DHT22;51453;47.738;7.420;2024-02-04T09:07:54;6.80;99.90
64939;DHT22;51453;47.738;7.420;2024-02-04T09:10:21;6.90;99.90
64939;DHT22;51453;47.738;7.420;2024-02-04T09:12:47;7.00;99.90
64939;DHT22;51453;47.738;7.420;2024-02-04T09:15:12;7.10;99.90
64939;DHT22;51453;47.738;7.420;2024-02-04T09:17:38;7.20;99.90
64939;DHT22;51453;47.738;7.420;2024-02-04T09:20:04;7.30;99.90
64939;DHT22;51453;47.738;7.420;2024-02-04T09:22:30;7.50;99.90
64939;DHT22;51453;47.738;7.420;2024-02-04T09:24:56;7.60;99.90
64939;DHT22;51453;47.738;7.420;2024-02-04T09:27:21;7.60;99.90
64939;DHT22;51453;47.738;7.420;2024-02-04T09:29:47;7.70;99.90
64939;DHT22;51453;47.738;7.420;2024-02-04T09:32:13;7.70;99.90
64939;DHT22;51453;47.738;7.420;2024-02-04T09:34:38;7.70;99.90
64939;DHT22;51453;47.738;7.420;2024-02-04T09:37:04;7.80;99.90
64939;DHT22;51453;47.738;7.420;2024-02-04T09:39:30;7.80;99.90
64939;DHT22;51453;47.738;7.420;2024-02-04T09:41:55;8.00;99.90
64939;DHT22;51453;47.738;7.420;2024-02-04T09:44:23;8.00;99.90
64939;DHT22;51453;47.738;7.420;2024-02-04T09:46:48;8.20;99.90
64939;DHT22;51453;47.738;7.420;2024-02-04T09:49:14;8.20;99.90
64939;DHT22;51453;47.738;7.420;2024-02-04T09:51:40;8.30;99.90
64939;DHT22;51453;47.738;7.420;2024-02-04T09:54:09;8.30;99.90
64939;DHT22;51453;47.738;7.420;2024-02-04T09:56:35;8.20;99.90
64939;DHT22;51453;47.738;7.420;2024-02-04T09:59:02;8.20;99.90
64939;DHT22;51453;47.738;7.420;2024-02-04T10:01:28;8.30;99.90
64939;DHT22;51453;47.738;7.420;2024-02-04T10:03:55;8.40;99.90
64939;DHT22;51453;47.738;7.420;2024-02-04T10:06:20;8.50;99.90
64939;DHT22;51453;47.738;7.420;2024-02-04T10:08:46;8.50;99.90
64939;DHT22;51453;47.738;7.420;2024-02-04T10:11:13;8.60;99.90
64939;DHT22;51453;47.738;7.420;2024-02-04T10:13:49;8.90;99.90
64939;DHT22;51453;47.738;7.420;2024-02-04T10:16:16;8.90;99.90
64939;DHT22;51453;47.738;7.420;2024-02-04T10:18:45;9.10;99.90
64939;DHT22;51453;47.738;7.420;2024-02-04T10:21:18;9.20;99.90
64939;DHT22;51453;47.738;7.420;2024-02-04T10:23:45;9.10;99.90
64939;DHT22;51453;47.738;7.420;2024-02-04T10:26:11;9.10;99.90
64939;DHT22;51453;47.738;7.420;2024-02-04T10:28:38;9.00;99.90
64939;DHT22;51453;47.738;7.420;2024-02-04T10:31:04;8.80;99.90
64939;DHT22;51453;47.738;7.420;2024-02-04T10:33:31;8.70;99.90
64939;DHT22;51453;47.738;7.420;2024-02-04T10:35:57;8.50;99.90
64939;DHT22;51453;47.738;7.420;2024-02-04T10:38:22;8.30;99.90
64939;DHT22;51453;47.738;7.420;2024-02-04T10:40:53;8.30;99.90
64939;DHT22;51453;47.738;7.420;2024-02-04T10:43:20;8.20;99.90
64939;DHT22;51453;47.738;7.420;2024-02-04T10:45:47;8.30;99.90
64939;DHT22;51453;47.738;7.420;2024-02-04T10:48:19;8.40;99.90
64939;DHT22;51453;47.738;7.420;2024-02-04T10:50:49;8.40;99.90
64939;DHT22;51453;47.738;7.420;2024-02-04T10:53:17;8.50;99.90
64939;DHT22;51453;47.738;7.420;2024-02-04T10:55:46;8.50;99.90
64939;DHT22;51453;47.738;7.420;2024-02-04T10:58:13;8.60;99.90
64939;DHT22;51453;47.738;7.420;2024-02-04T11:00:40;8.60;99.90
64939;DHT22;51453;47.738;7.420;2024-02-04T11:03:06;8.70;99.90
64939;DHT22;51453;47.738;7.420;2024-02-04T11:05:33;8.70;99.90
64939;DHT22;51453;47.738;7.420;2024-02-04T11:08:02;8.70;99.90
64939;DHT22;51453;47.738;7.420;2024-02-04T11:10:30;8.80;99.90
64939;DHT22;51453;47.738;7.420;2024-02-04T11:12:58;9.00;99.90
64939;DHT22;51453;47.738;7.420;2024-02-04T11:15:29;9.00;99.90
64939;DHT22;51453;47.738;7.420;2024-02-04T11:18:12;9.10;99.90
64939;DHT22;51453;47.738;7.420;2024-02-04T11:20:58;9.00;99.90
64939;DHT22;51453;47.738;7.420;2024-02-04T11:23:40;9.00;99.90
64939;DHT22;51453;47.738;7.420;2024-02-04T11:26:07;9.00;99.90
64939;DHT22;51453;47.738;7.420;2024-02-04T11:28:34;9.00;99.90
64939;DHT22;51453;47.738;7.420;2024-02-04T11:31:00;9.00;99.90
64939;DHT22;51453;47.738;7.420;2024-02-04T11:33:27;9.10;99.90
64939;DHT22;51453;47.738;7.420;2024-02-04T11:36:04;9.10;99.90
64939;DHT22;51453;47.738;7.420;2024-02-04T11:38:31;9.30;99.90
64939;DHT22;51453;47.738;7.420;2024-02-04T11:40:57;9.50;99.90
64939;DHT22;51453;47.738;7.420;2024-02-04T11:43:23;9.50;99.90
64939;DHT22;51453;47.738;7.420;2024-02-04T11:45:51;9.60;99.90
64939;DHT22;51453;47.738;7.420;2024-02-04T11:48:18;9.60;99.90
64939;DHT22;51453;47.738;7.420;2024-02-04T11:50:43;9.60;99.90
64939;DHT22;51453;47.738;7.420;2024-02-04T11:53:18;9.70;99.90
64939;DHT22;51453;47.738;7.420;2024-02-04T11:55:45;9.60;99.90
64939;DHT22;51453;47.738;7.420;2024-02-04T11:58:11;9.50;99.90
64939;DHT22;51453;47.738;7.420;2024-02-04T12:00:37;9.30;99.90
64939;DHT22;51453;47.738;7.420;2024-02-04T12:03:08;9.30;99.90
64939;DHT22;51453;47.738;7.420;2024-02-04T12:05:37;9.30;99.90
64939;DHT22;51453;47.738;7.420;2024-02-04T12:08:07;9.50;99.90
64939;DHT22;51453;47.738;7.420;2024-02-04T12:10:35;9.70;99.90
64939;DHT22;51453;47.738;7.420;2024-02-04T12:13:03;9.80;99.90
64939;DHT22;51453;47.738;7.420;2024-02-04T12:15:29;9.80;99.90
64939;DHT22;51453;47.738;7.420;2024-02-04T12:18:10;10.00;99.90
64939;DHT22;51453;47.738;7.420;2024-02-04T12:20:37;9.80;99.90
64939;DHT22;51453;47.738;7.420;2024-02-04T12:23:04;9.80;99.90
64939;DHT22;51453;47.738;7.420;2024-02-04T12:25:30;9.70;99.90
64939;DHT22;51453;47.738;7.420;2024-02-04T12:28:00;9.90;99.90
64939;DHT22;51453;47.738;7.420;2024-02-04T12:30:28;9.90;99.90
64939;DHT22;51453;47.738;7.420;2024-02-04T12:33:01;9.80;99.90
64939;DHT22;51453;47.738;7.420;2024-02-04T12:35:28;9.60;99.90
64939;DHT22;51453;47.738;7.420;2024-02-04T12:37:58;9.80;99.90
64939;DHT22;51453;47.738;7.420;2024-02-04T12:40:28;9.80;99.90
64939;DHT22;51453;47.738;7.420;2024-02-04T12:42:55;9.70;99.90
64939;DHT22;51453;47.738;7.420;2024-02-04T12:45:24;9.80;99.90
64939;DHT22;51453;47.738;7.420;2024-02-04T12:47:54;9.80;99.90
64939;DHT22;51453;47.738;7.420;2024-02-04T12:50:20;9.90;99.90
64939;DHT22;51453;47.738;7.420;2024-02-04T12:53:06;10.00;99.90
64939;DHT22;51453;47.738;7.420;2024-02-04T12:55:33;10.10;99.90
64939;DHT22;51453;47.738;7.420;2024-02-04T13:00:36;10.60;99.90
64939;DHT22;51453;47.738;7.420;2024-02-04T13:03:06;10.60;99.90
64939;DHT22;51453;47.738;7.420;2024-02-04T13:05:33;10.70;99.90
64939;DHT22;51453;47.738;7.420;2024-02-04T13:08:00;10.80;99.90
64939;DHT22;51453;47.738;7.420;2024-02-04T13:10:35;10.80;99.90
64939;DHT22;51453;47.738;7.420;2024-02-04T13:15:32;10.80;99.90
64939;DHT22;51453;47.738;7.420;2024-02-04T13:17:58;10.90;99.90
64939;DHT22;51453;47.738;7.420;2024-02-04T13:20:24;10.80;99.90
64939;DHT22;51453;47.738;7.420;2024-02-04T13:22:50;10.90;99.90
64939;DHT22;51453;47.738;7.420;2024-02-04T13:25:16;10.80;99.90
64939;DHT22;51453;47.738;7.420;2024-02-04T13:27:42;10.70;99.90
64939;DHT22;51453;47.738;7.420;2024-02-04T13:30:08;10.70;99.90
64939;DHT22;51453;47.738;7.420;2024-02-04T13:32:39;10.70;99.90
64939;DHT22;51453;47.738;7.420;2024-02-04T13:35:05;10.80;99.90
64939;DHT22;51453;47.738;7.420;2024-02-04T13:37:32;10.90;99.90
64939;DHT22;51453;47.738;7.420;2024-02-04T13:39:57;10.60;99.90
64939;DHT22;51453;47.738;7.420;2024-02-04T13:42:23;10.40;99.90
64939;DHT22;51453;47.738;7.420;2024-02-04T13:44:49;10.30;99.90
64939;DHT22;51453;47.738;7.420;2024-02-04T13:47:14;10.30;99.90
64939;DHT22;51453;47.738;7.420;2024-02-04T13:49:40;10.30;99.90
64939;DHT22;51453;47.738;7.420;2024-02-04T13:52:06;10.10;99.90
64939;DHT22;51453;47.738;7.420;2024-02-04T13:54:31;10.20;99.90
64939;DHT22;51453;47.738;7.420;2024-02-04T13:56:57;10.10;99.90
64939;DHT22;51453;47.738;7.420;2024-02-04T13:59:22;10.00;99.90
64939;DHT22;51453;47.738;7.420;2024-02-04T14:01:48;9.90;99.90
64939;DHT22;51453;47.738;7.420;2024-02-04T14:04:16;9.90;99.90
64939;DHT22;51453;47.738;7.420;2024-02-04T14:06:42;9.90;99.90
64939;DHT22;51453;47.738;7.420;2024-02-04T14:09:08;9.90;99.90
64939;DHT22;51453;47.738;7.420;2024-02-04T14:11:33;9.70;99.90
64939;DHT22;51453;47.738;7.420;2024-02-04T14:13:59;9.50;99.90
64939;DHT22;51453;47.738;7.420;2024-02-04T14:16:25;9.40;99.90
64939;DHT22;51453;47.738;7.420;2024-02-04T14:18:50;9.50;99.90
64939;DHT22;51453;47.738;7.420;2024-02-04T14:21:16;9.60;99.90
64939;DHT22;51453;47.738;7.420;2024-02-04T14:23:41;9.70;99.90
64939;DHT22;51453;47.738;7.420;2024-02-04T14:26:15;9.70;99.90
64939;DHT22;51453;47.738;7.420;2024-02-04T14:28:41;9.60;99.90
64939;DHT22;51453;47.738;7.420;2024-02-04T14:31:07;9.40;99.90
64939;DHT22;51453;47.738;7.420;2024-02-04T14:33:33;9.40;99.90
64939;DHT22;51453;47.738;7.420;2024-02-04T14:35:58;9.40;99.90
64939;DHT22;51453;47.738;7.420;2024-02-04T14:38:26;9.40;99.90
64939;DHT22;51453;47.738;7.420;2024-02-04T14:40:52;9.30;99.90
64939;DHT22;51453;47.738;7.420;2024-02-04T14:43:17;9.20;99.90
64939;DHT22;51453;47.738;7.420;2024-02-04T14:45:43;9.10;99.90
64939;DHT22;51453;47.738;7.420;2024-02-04T14:48:09;9.10;99.90
64939;DHT22;51453;47.738;7.420;2024-02-04T14:50:35;9.00;99.90
64939;DHT22;51453;47.738;7.420;2024-02-04T14:53:00;9.00;99.90
64939;DHT22;51453;47.738;7.420;2024-02-04T14:55:26;8.80;99.90
64939;DHT22;51453;47.738;7.420;2024-02-04T14:57:52;8.70;99.90
64939;DHT22;51453;47.738;7.420;2024-02-04T15:00:18;8.70;99.90
64939;DHT22;51453;47.738;7.420;2024-02-04T15:02:46;8.60;99.90
64939;DHT22;51453;47.738;7.420;2024-02-04T15:05:12;8.60;99.90
64939;DHT22;51453;47.738;7.420;2024-02-04T15:07:37;8.50;99.90
64939;DHT22;51453;47.738;7.420;2024-02-04T15:10:03;8.40;99.90
64939;DHT22;51453;47.738;7.420;2024-02-04T15:12:29;8.40;99.90
64939;DHT22;51453;47.738;7.420;2024-02-04T15:14:55;8.40;99.90
64939;DHT22;51453;47.738;7.420;2024-02-04T15:17:21;8.30;99.90
64939;DHT22;51453;47.738;7.420;2024-02-04T15:19:47;8.30;99.90
64939;DHT22;51453;47.738;7.420;2024-02-04T15:22:13;8.30;99.90
64939;DHT22;51453;47.738;7.420;2024-02-04T15:24:39;8.30;99.90
64939;DHT22;51453;47.738;7.420;2024-02-04T15:27:06;8.20;99.90
64939;DHT22;51453;47.738;7.420;2024-02-04T15:29:36;8.20;99.90
64939;DHT22;51453;47.738;7.420;2024-02-04T15:32:03;8.10;99.90
64939;DHT22;51453;47.738;7.420;2024-02-04T15:34:30;8.10;99.90
64939;DHT22;51453;47.738;7.420;2024-02-04T15:37:03;8.10;99.90
64939;DHT22;51453;47.738;7.420;2024-02-04T15:39:29;8.10;99.90
64939;DHT22;51453;47.738;7.420;2024-02-04T15:41:54;8.10;99.90
64939;DHT22;51453;47.738;7.420;2024-02-04T15:44:20;7.90;99.90
64939;DHT22;51453;47.738;7.420;2024-02-04T15:46:48;7.90;99.90
64939;DHT22;51453;47.738;7.420;2024-02-04T15:49:19;7.90;99.90
64939;DHT22;51453;47.738;7.420;2024-02-04T15:51:46;7.90;99.90